sensor_id;sensor_type;location;lat;lon;timestamp;pressure;altitude;pressure_sealevel;temperature;humidity
13486;BME280;6815;59.336;17.998;2023-06-14T00:00:31;51817.69;;;-145.37;36.41
13486;BME280;6815;59.336;17.998;2023-06-14T00:02:56;51833.66;;;-145.37;37.04
13486;BME280;6815;59.336;17.998;2023-06-14T00:05:22;51873.56;;;-145.37;36.29
13486;BME280;6815;59.336;17.998;2023-06-14T00:07:48;51887.53;;;-145.37;36.20
13486;BME280;6815;59.336;17.998;2023-06-14T00:10:14;51899.53;;;-145.37;36.95
13486;BME280;6815;59.336;17.998;2023-06-14T00:12:40;51873.56;;;-145.37;37.35
13486;BME280;6815;59.336;17.998;2023-06-14T00:15:07;51915.50;;;-145.37;36.58
13486;BME280;6815;59.336;17.998;2023-06-14T00:17:35;51925.47;;;-145.37;36.68
13486;BME280;6815;59.336;17.998;2023-06-14T00:20:03;51871.59;;;-145.37;36.63
13486;BME280;6815;59.336;17.998;2023-06-14T00:22:30;51879.56;;;-145.37;36.83
13486;BME280;6815;59.336;17.998;2023-06-14T00:24:57;51865.59;;;-145.37;36.82
13486;BME280;6815;59.336;17.998;2023-06-14T00:27:22;51837.66;;;-145.37;36.74
13486;BME280;6815;59.336;17.998;2023-06-14T00:29:47;51813.69;;;-145.37;37.36
13486;BME280;6815;59.336;17.998;2023-06-14T00:32:13;51885.56;;;-145.37;38.00
13486;BME280;6815;59.336;17.998;2023-06-14T00:34:38;51881.56;;;-145.37;37.19
13486;BME280;6815;59.336;17.998;2023-06-14T00:37:04;51897.53;;;-145.37;38.22
13486;BME280;6815;59.336;17.998;2023-06-14T00:39:30;51851.63;;;-145.37;37.97
13486;BME280;6815;59.336;17.998;2023-06-14T00:41:55;51879.56;;;-145.37;37.47
13486;BME280;6815;59.336;17.998;2023-06-14T00:44:20;51803.72;;;-145.37;37.33
13486;BME280;6815;59.336;17.998;2023-06-14T00:46:47;51887.53;;;-145.37;37.65
13486;BME280;6815;59.336;17.998;2023-06-14T00:49:16;51901.53;;;-145.37;37.64
13486;BME280;6815;59.336;17.998;2023-06-14T00:51:42;51873.56;;;-145.37;37.88
13486;BME280;6815;59.336;17.998;2023-06-14T00:54:08;51881.56;;;-145.37;37.88
13486;BME280;6815;59.336;17.998;2023-06-14T00:56:37;51897.53;;;-145.37;38.64
13486;BME280;6815;59.336;17.998;2023-06-14T00:59:03;51867.59;;;-145.37;38.86
13486;BME280;6815;59.336;17.998;2023-06-14T01:01:30;51857.59;;;-145.37;38.02
13486;BME280;6815;59.336;17.998;2023-06-14T01:03:58;51929.47;;;-145.37;37.91
13486;BME280;6815;59.336;17.998;2023-06-14T01:06:36;51863.59;;;-145.37;37.81
13486;BME280;6815;59.336;17.998;2023-06-14T01:11:46;51903.50;;;-145.37;38.44
13486;BME280;6815;59.336;17.998;2023-06-14T01:14:14;51901.53;;;-145.37;38.75
13486;BME280;6815;59.336;17.998;2023-06-14T01:16:41;51849.63;;;-145.37;38.15
13486;BME280;6815;59.336;17.998;2023-06-14T01:19:10;51889.53;;;-145.37;38.07
13486;BME280;6815;59.336;17.998;2023-06-14T01:21:39;51899.53;;;-145.37;38.50
13486;BME280;6815;59.336;17.998;2023-06-14T01:24:08;51955.41;;;-145.37;38.79
13486;BME280;6815;59.336;17.998;2023-06-14T01:26:34;51871.59;;;-145.37;39.87
13486;BME280;6815;59.336;17.998;2023-06-14T01:29:03;51813.69;;;-145.37;39.96
13486;BME280;6815;59.336;17.998;2023-06-14T01:31:29;51873.56;;;-145.37;40.04
13486;BME280;6815;59.336;17.998;2023-06-14T01:33:55;51895.53;;;-145.37;40.41
13486;BME280;6815;59.336;17.998;2023-06-14T01:36:20;51897.53;;;-145.37;39.58
13486;BME280;6815;59.336;17.998;2023-06-14T01:38:48;51815.69;;;-145.37;39.81
13486;BME280;6815;59.336;17.998;2023-06-14T01:41:16;51913.50;;;-145.37;40.45
13486;BME280;6815;59.336;17.998;2023-06-14T01:43:43;51827.66;;;-145.37;40.20
13486;BME280;6815;59.336;17.998;2023-06-14T01:46:09;51883.56;;;-145.37;40.08
13486;BME280;6815;59.336;17.998;2023-06-14T01:48:36;51885.56;;;-145.37;40.65
13486;BME280;6815;59.336;17.998;2023-06-14T01:51:01;51865.59;;;-145.37;40.41
13486;BME280;6815;59.336;17.998;2023-06-14T01:53:26;51885.56;;;-145.37;39.84
13486;BME280;6815;59.336;17.998;2023-06-14T01:55:52;51891.53;;;-145.37;40.12
13486;BME280;6815;59.336;17.998;2023-06-14T01:58:19;51881.56;;;-145.37;40.90
13486;BME280;6815;59.336;17.998;2023-06-14T02:00:44;51891.53;;;-145.37;40.56
13486;BME280;6815;59.336;17.998;2023-06-14T02:03:11;51919.50;;;-145.37;41.88
13486;BME280;6815;59.336;17.998;2023-06-14T02:05:37;51875.56;;;-145.37;42.34
13486;BME280;6815;59.336;17.998;2023-06-14T02:08:04;51903.50;;;-145.37;42.81
13486;BME280;6815;59.336;17.998;2023-06-14T02:10:30;51891.53;;;-145.37;43.25
13486;BME280;6815;59.336;17.998;2023-06-14T02:12:56;51875.56;;;-145.37;43.66
13486;BME280;6815;59.336;17.998;2023-06-14T02:15:21;51907.50;;;-145.37;45.71
13486;BME280;6815;59.336;17.998;2023-06-14T02:17:47;51929.47;;;-145.37;47.46
13486;BME280;6815;59.336;17.998;2023-06-14T02:20:14;51889.53;;;-145.37;47.09
13486;BME280;6815;59.336;17.998;2023-06-14T02:22:40;51893.53;;;-145.37;45.69
13486;BME280;6815;59.336;17.998;2023-06-14T02:25:06;51995.34;;;-145.37;44.69
13486;BME280;6815;59.336;17.998;2023-06-14T02:27:32;51909.50;;;-145.37;45.26
13486;BME280;6815;59.336;17.998;2023-06-14T02:29:58;51909.50;;;-145.37;43.05
13486;BME280;6815;59.336;17.998;2023-06-14T02:32:24;51843.63;;;-145.37;42.07
13486;BME280;6815;59.336;17.998;2023-06-14T02:34:49;51889.53;;;-145.37;41.75
13486;BME280;6815;59.336;17.998;2023-06-14T02:37:17;51841.63;;;-145.37;41.97
13486;BME280;6815;59.336;17.998;2023-06-14T02:39:43;51865.59;;;-145.37;41.67
13486;BME280;6815;59.336;17.998;2023-06-14T02:42:08;51853.63;;;-145.37;41.57
13486;BME280;6815;59.336;17.998;2023-06-14T02:44:34;51897.53;;;-145.37;41.36
13486;BME280;6815;59.336;17.998;2023-06-14T02:47:00;51885.56;;;-145.37;41.40
13486;BME280;6815;59.336;17.998;2023-06-14T02:49:26;51911.50;;;-145.37;43.24
13486;BME280;6815;59.336;17.998;2023-06-14T02:51:51;51873.56;;;-145.37;43.73
13486;BME280;6815;59.336;17.998;2023-06-14T02:54:16;51889.53;;;-145.37;44.57
13486;BME280;6815;59.336;17.998;2023-06-14T02:56:42;51849.63;;;-145.37;43.60
13486;BME280;6815;59.336;17.998;2023-06-14T02:59:07;51891.53;;;-145.37;43.61
13486;BME280;6815;59.336;17.998;2023-06-14T03:01:34;51893.53;;;-145.37;44.43
13486;BME280;6815;59.336;17.998;2023-06-14T03:04:03;51883.56;;;-145.37;44.76
13486;BME280;6815;59.336;17.998;2023-06-14T03:06:29;51871.59;;;-145.37;45.73
13486;BME280;6815;59.336;17.998;2023-06-14T03:08:56;51885.56;;;-145.37;48.20
13486;BME280;6815;59.336;17.998;2023-06-14T03:11:27;51879.56;;;-145.37;47.95
13486;BME280;6815;59.336;17.998;2023-06-14T03:13:53;51879.56;;;-145.37;47.09
13486;BME280;6815;59.336;17.998;2023-06-14T03:16:20;51851.63;;;-145.37;46.66
13486;BME280;6815;59.336;17.998;2023-06-14T03:18:48;51905.50;;;-145.37;46.24
13486;BME280;6815;59.336;17.998;2023-06-14T03:21:14;51805.72;;;-145.37;46.34
13486;BME280;6815;59.336;17.998;2023-06-14T03:23:41;51893.53;;;-145.37;45.85
13486;BME280;6815;59.336;17.998;2023-06-14T03:26:06;51933.47;;;-145.37;45.54
13486;BME280;6815;59.336;17.998;2023-06-14T03:28:31;51937.44;;;-145.37;45.49
13486;BME280;6815;59.336;17.998;2023-06-14T03:30:57;51879.56;;;-145.37;44.96
13486;BME280;6815;59.336;17.998;2023-06-14T03:33:22;51875.56;;;-145.37;45.12
13486;BME280;6815;59.336;17.998;2023-06-14T03:35:48;51909.50;;;-145.37;44.83
13486;BME280;6815;59.336;17.998;2023-06-14T03:38:13;51903.50;;;-145.37;45.03
13486;BME280;6815;59.336;17.998;2023-06-14T03:40:38;51791.75;;;-145.37;45.01
13486;BME280;6815;59.336;17.998;2023-06-14T03:43:04;51881.56;;;-145.37;44.95
13486;BME280;6815;59.336;17.998;2023-06-14T03:45:29;51827.66;;;-145.37;44.61
13486;BME280;6815;59.336;17.998;2023-06-14T03:47:55;51877.56;;;-145.37;44.59
13486;BME280;6815;59.336;17.998;2023-06-14T03:50:21;51875.56;;;-145.37;45.36
13486;BME280;6815;59.336;17.998;2023-06-14T03:52:48;51899.53;;;-145.37;45.99
13486;BME280;6815;59.336;17.998;2023-06-14T03:55:13;51919.50;;;-145.37;45.72
13486;BME280;6815;59.336;17.998;2023-06-14T03:57:41;51881.56;;;-145.37;45.55
13486;BME280;6815;59.336;17.998;2023-06-14T04:00:08;51919.50;;;-145.37;45.62
13486;BME280;6815;59.336;17.998;2023-06-14T04:02:34;51945.44;;;-145.37;45.46
13486;BME280;6815;59.336;17.998;2023-06-14T04:05:02;51887.53;;;-145.37;45.71
13486;BME280;6815;59.336;17.998;2023-06-14T04:07:27;51885.56;;;-145.37;46.14
13486;BME280;6815;59.336;17.998;2023-06-14T04:09:54;51897.53;;;-145.37;46.50
13486;BME280;6815;59.336;17.998;2023-06-14T04:12:19;51863.59;;;-145.37;47.24
13486;BME280;6815;59.336;17.998;2023-06-14T04:14:45;51903.50;;;-145.37;47.90
13486;BME280;6815;59.336;17.998;2023-06-14T04:17:10;51881.56;;;-145.37;48.00
13486;BME280;6815;59.336;17.998;2023-06-14T04:19:36;51887.53;;;-145.37;47.99
13486;BME280;6815;59.336;17.998;2023-06-14T04:22:01;51847.63;;;-145.37;47.03
13486;BME280;6815;59.336;17.998;2023-06-14T04:24:28;51847.63;;;-145.37;46.62
13486;BME280;6815;59.336;17.998;2023-06-14T04:27:00;51867.59;;;-145.37;47.08
13486;BME280;6815;59.336;17.998;2023-06-14T04:29:26;51873.56;;;-145.37;49.10
13486;BME280;6815;59.336;17.998;2023-06-14T04:31:55;51871.59;;;-145.37;49.81
13486;BME280;6815;59.336;17.998;2023-06-14T04:34:27;51883.56;;;-145.37;50.34
13486;BME280;6815;59.336;17.998;2023-06-14T04:36:57;51769.78;;;-145.37;51.51
13486;BME280;6815;59.336;17.998;2023-06-14T04:39:24;51891.53;;;-145.37;50.65
13486;BME280;6815;59.336;17.998;2023-06-14T04:41:51;51877.56;;;-145.37;49.84
13486;BME280;6815;59.336;17.998;2023-06-14T04:44:23;51895.53;;;-145.37;48.44
13486;BME280;6815;59.336;17.998;2023-06-14T04:46:55;51865.59;;;-145.37;46.75
13486;BME280;6815;59.336;17.998;2023-06-14T04:49:21;52007.31;;;-145.37;45.86
13486;BME280;6815;59.336;17.998;2023-06-14T04:51:48;51947.44;;;-145.37;45.38
13486;BME280;6815;59.336;17.998;2023-06-14T04:54:22;51867.59;;;-145.37;44.75
13486;BME280;6815;59.336;17.998;2023-06-14T04:56:50;51853.63;;;-145.37;43.47
13486;BME280;6815;59.336;17.998;2023-06-14T04:59:15;51869.59;;;-145.37;42.66
13486;BME280;6815;59.336;17.998;2023-06-14T05:01:42;51807.72;;;-145.37;42.12
13486;BME280;6815;59.336;17.998;2023-06-14T05:04:13;52121.09;;;-145.37;41.29
13486;BME280;6815;59.336;17.998;2023-06-14T05:06:38;51831.66;;;-145.37;42.08
13486;BME280;6815;59.336;17.998;2023-06-14T05:09:03;51887.53;;;-145.37;43.21
13486;BME280;6815;59.336;17.998;2023-06-14T05:11:29;51805.72;;;-145.37;42.59
13486;BME280;6815;59.336;17.998;2023-06-14T05:13:54;51831.66;;;-145.37;42.84
13486;BME280;6815;59.336;17.998;2023-06-14T05:16:19;51803.72;;;-145.37;41.83
13486;BME280;6815;59.336;17.998;2023-06-14T05:18:48;51857.59;;;-145.37;41.93
13486;BME280;6815;59.336;17.998;2023-06-14T05:21:14;51883.56;;;-145.37;41.64
13486;BME280;6815;59.336;17.998;2023-06-14T05:23:43;51857.59;;;-145.37;41.82
13486;BME280;6815;59.336;17.998;2023-06-14T05:26:09;51827.66;;;-145.37;40.35
13486;BME280;6815;59.336;17.998;2023-06-14T05:28:35;51781.75;;;-145.37;39.12
13486;BME280;6815;59.336;17.998;2023-06-14T05:31:00;51873.56;;;-145.37;39.90
13486;BME280;6815;59.336;17.998;2023-06-14T05:33:26;51855.63;;;-145.37;40.12
13486;BME280;6815;59.336;17.998;2023-06-14T05:35:51;51829.66;;;-145.37;40.06
13486;BME280;6815;59.336;17.998;2023-06-14T05:38:17;51819.69;;;-145.37;40.05
13486;BME280;6815;59.336;17.998;2023-06-14T05:40:42;51827.66;;;-145.37;39.29
13486;BME280;6815;59.336;17.998;2023-06-14T05:43:07;51819.69;;;-145.37;38.49
13486;BME280;6815;59.336;17.998;2023-06-14T05:45:33;51911.50;;;-145.37;37.77
13486;BME280;6815;59.336;17.998;2023-06-14T05:47:58;51837.66;;;-145.37;37.63
13486;BME280;6815;59.336;17.998;2023-06-14T05:50:24;51833.66;;;-145.37;39.11
13486;BME280;6815;59.336;17.998;2023-06-14T05:52:49;51863.59;;;-145.37;39.40
13486;BME280;6815;59.336;17.998;2023-06-14T05:55:16;51805.72;;;-145.37;39.24
13486;BME280;6815;59.336;17.998;2023-06-14T05:57:41;51821.69;;;-145.37;38.87
13486;BME280;6815;59.336;17.998;2023-06-14T06:00:08;51841.63;;;-145.37;39.06
13486;BME280;6815;59.336;17.998;2023-06-14T06:02:36;51871.59;;;-145.37;37.90
13486;BME280;6815;59.336;17.998;2023-06-14T06:05:02;52073.19;;;-145.37;37.85
13486;BME280;6815;59.336;17.998;2023-06-14T06:07:28;51843.63;;;-145.37;38.40
13486;BME280;6815;59.336;17.998;2023-06-14T06:09:53;51851.63;;;-145.37;37.83
13486;BME280;6815;59.336;17.998;2023-06-14T06:12:19;51777.78;;;-145.37;37.25
13486;BME280;6815;59.336;17.998;2023-06-14T06:14:44;51845.63;;;-145.37;38.07
13486;BME280;6815;59.336;17.998;2023-06-14T06:17:10;51861.59;;;-145.37;37.98
13486;BME280;6815;59.336;17.998;2023-06-14T06:19:35;51869.59;;;-145.37;37.76
13486;BME280;6815;59.336;17.998;2023-06-14T06:22:00;51855.63;;;-145.37;38.21
13486;BME280;6815;59.336;17.998;2023-06-14T06:24:26;51871.59;;;-145.37;38.47
13486;BME280;6815;59.336;17.998;2023-06-14T06:26:51;51877.56;;;-145.37;38.83
13486;BME280;6815;59.336;17.998;2023-06-14T06:29:16;51867.59;;;-145.37;38.86
13486;BME280;6815;59.336;17.998;2023-06-14T06:31:42;51797.72;;;-145.37;37.65
13486;BME280;6815;59.336;17.998;2023-06-14T06:34:07;51815.69;;;-145.37;37.18
13486;BME280;6815;59.336;17.998;2023-06-14T06:36:33;51807.72;;;-145.37;37.99
13486;BME280;6815;59.336;17.998;2023-06-14T06:38:58;51861.59;;;-145.37;35.43
13486;BME280;6815;59.336;17.998;2023-06-14T06:41:23;51817.69;;;-145.37;34.04
13486;BME280;6815;59.336;17.998;2023-06-14T06:43:49;51777.78;;;-145.37;33.43
13486;BME280;6815;59.336;17.998;2023-06-14T06:46:14;51815.69;;;-145.37;33.68
13486;BME280;6815;59.336;17.998;2023-06-14T06:48:40;51839.66;;;-145.37;32.59
13486;BME280;6815;59.336;17.998;2023-06-14T06:51:05;51801.72;;;-145.37;31.37
13486;BME280;6815;59.336;17.998;2023-06-14T06:53:31;51809.72;;;-145.37;29.25
13486;BME280;6815;59.336;17.998;2023-06-14T06:55:56;51781.75;;;-145.37;28.92
13486;BME280;6815;59.336;17.998;2023-06-14T06:58:21;51809.72;;;-145.37;29.00
13486;BME280;6815;59.336;17.998;2023-06-14T07:00:47;51727.88;;;-145.37;28.92
13486;BME280;6815;59.336;17.998;2023-06-14T07:03:12;51809.72;;;-145.37;28.42
13486;BME280;6815;59.336;17.998;2023-06-14T07:05:38;51757.81;;;-145.37;28.35
13486;BME280;6815;59.336;17.998;2023-06-14T07:08:03;51777.78;;;-145.37;27.96
13486;BME280;6815;59.336;17.998;2023-06-14T07:10:29;51813.69;;;-145.37;27.61
13486;BME280;6815;59.336;17.998;2023-06-14T07:12:54;51753.81;;;-145.37;27.35
13486;BME280;6815;59.336;17.998;2023-06-14T07:15:20;51797.72;;;-145.37;26.93
13486;BME280;6815;59.336;17.998;2023-06-14T07:17:45;51769.78;;;-145.37;27.32
13486;BME280;6815;59.336;17.998;2023-06-14T07:20:11;51801.72;;;-145.37;27.14
13486;BME280;6815;59.336;17.998;2023-06-14T07:22:41;51777.78;;;-145.37;26.79
13486;BME280;6815;59.336;17.998;2023-06-14T07:25:10;51797.72;;;-145.37;26.95
13486;BME280;6815;59.336;17.998;2023-06-14T07:27:40;51793.75;;;-145.37;26.94
13486;BME280;6815;59.336;17.998;2023-06-14T07:30:06;51793.75;;;-145.37;27.49
13486;BME280;6815;59.336;17.998;2023-06-14T07:32:32;51797.72;;;-145.37;27.10
13486;BME280;6815;59.336;17.998;2023-06-14T07:34:57;51831.66;;;-145.37;26.82
13486;BME280;6815;59.336;17.998;2023-06-14T07:37:22;51763.78;;;-145.37;26.48
13486;BME280;6815;59.336;17.998;2023-06-14T07:39:48;51733.84;;;-145.37;26.30
13486;BME280;6815;59.336;17.998;2023-06-14T07:42:13;51739.84;;;-145.37;26.11
13486;BME280;6815;59.336;17.998;2023-06-14T07:44:39;51825.66;;;-145.37;26.15
13486;BME280;6815;59.336;17.998;2023-06-14T07:47:04;51789.75;;;-145.37;25.79
13486;BME280;6815;59.336;17.998;2023-06-14T07:49:30;51765.78;;;-145.37;25.59
13486;BME280;6815;59.336;17.998;2023-06-14T07:51:55;51757.81;;;-145.37;25.29
13486;BME280;6815;59.336;17.998;2023-06-14T07:54:21;51761.81;;;-145.37;24.61
13486;BME280;6815;59.336;17.998;2023-06-14T07:56:50;51753.81;;;-145.37;24.61
13486;BME280;6815;59.336;17.998;2023-06-14T07:59:16;51737.84;;;-145.37;24.82
13486;BME280;6815;59.336;17.998;2023-06-14T08:01:41;51745.84;;;-145.37;24.88
13486;BME280;6815;59.336;17.998;2023-06-14T08:04:15;51809.72;;;-145.37;24.33
13486;BME280;6815;59.336;17.998;2023-06-14T08:06:41;51799.72;;;-145.37;24.69
13486;BME280;6815;59.336;17.998;2023-06-14T08:09:09;51835.66;;;-145.37;24.54
13486;BME280;6815;59.336;17.998;2023-06-14T08:11:36;51811.69;;;-145.37;24.65
13486;BME280;6815;59.336;17.998;2023-06-14T08:14:01;51799.72;;;-145.37;24.75
13486;BME280;6815;59.336;17.998;2023-06-14T08:16:27;51827.66;;;-145.37;24.79
13486;BME280;6815;59.336;17.998;2023-06-14T08:18:52;51693.94;;;-145.37;24.88
13486;BME280;6815;59.336;17.998;2023-06-14T08:21:17;51803.72;;;-145.37;24.40
13486;BME280;6815;59.336;17.998;2023-06-14T08:23:43;51777.78;;;-145.37;24.14
13486;BME280;6815;59.336;17.998;2023-06-14T08:26:09;51775.78;;;-145.37;24.00
13486;BME280;6815;59.336;17.998;2023-06-14T08:28:34;51757.81;;;-145.37;24.18
13486;BME280;6815;59.336;17.998;2023-06-14T08:31:00;51763.78;;;-145.37;24.37
13486;BME280;6815;59.336;17.998;2023-06-14T08:33:25;51837.66;;;-145.37;24.05
13486;BME280;6815;59.336;17.998;2023-06-14T08:35:51;51775.78;;;-145.37;24.04
13486;BME280;6815;59.336;17.998;2023-06-14T08:38:16;51781.75;;;-145.37;24.23
13486;BME280;6815;59.336;17.998;2023-06-14T08:40:41;51755.81;;;-145.37;24.11
13486;BME280;6815;59.336;17.998;2023-06-14T08:43:07;51789.75;;;-145.37;24.12
13486;BME280;6815;59.336;17.998;2023-06-14T08:45:33;51781.75;;;-145.37;24.68
13486;BME280;6815;59.336;17.998;2023-06-14T08:47:59;51747.81;;;-145.37;25.45
13486;BME280;6815;59.336;17.998;2023-06-14T08:50:25;51713.91;;;-145.37;25.73
13486;BME280;6815;59.336;17.998;2023-06-14T08:52:54;51761.81;;;-145.37;25.97
13486;BME280;6815;59.336;17.998;2023-06-14T08:55:22;51781.75;;;-145.37;25.88
13486;BME280;6815;59.336;17.998;2023-06-14T08:57:54;51789.75;;;-145.37;26.01
13486;BME280;6815;59.336;17.998;2023-06-14T09:00:20;51781.75;;;-145.37;26.10
13486;BME280;6815;59.336;17.998;2023-06-14T09:02:46;52045.25;;;-145.37;26.30
13486;BME280;6815;59.336;17.998;2023-06-14T09:05:15;51793.75;;;-145.37;26.78
13486;BME280;6815;59.336;17.998;2023-06-14T09:07:44;51803.72;;;-145.37;27.03
13486;BME280;6815;59.336;17.998;2023-06-14T09:10:11;51831.66;;;-145.37;27.13
13486;BME280;6815;59.336;17.998;2023-06-14T09:12:37;51763.78;;;-145.37;27.58
13486;BME280;6815;59.336;17.998;2023-06-14T09:15:03;51797.72;;;-145.37;27.86
13486;BME280;6815;59.336;17.998;2023-06-14T09:17:37;51823.69;;;-145.37;28.45
13486;BME280;6815;59.336;17.998;2023-06-14T09:20:05;51767.78;;;-145.37;28.69
13486;BME280;6815;59.336;17.998;2023-06-14T09:22:43;51803.72;;;-145.37;28.73
13486;BME280;6815;59.336;17.998;2023-06-14T09:25:09;51801.72;;;-145.37;28.51
13486;BME280;6815;59.336;17.998;2023-06-14T09:27:35;51763.78;;;-145.37;28.57
13486;BME280;6815;59.336;17.998;2023-06-14T09:30:02;51777.78;;;-145.37;28.66
13486;BME280;6815;59.336;17.998;2023-06-14T09:32:28;51897.53;;;-145.37;28.59
13486;BME280;6815;59.336;17.998;2023-06-14T09:34:54;51807.72;;;-145.37;29.08
13486;BME280;6815;59.336;17.998;2023-06-14T09:37:30;51885.56;;;-145.37;29.34
13486;BME280;6815;59.336;17.998;2023-06-14T09:39:57;51805.72;;;-145.37;29.29
13486;BME280;6815;59.336;17.998;2023-06-14T09:42:23;51795.72;;;-145.37;29.58
13486;BME280;6815;59.336;17.998;2023-06-14T09:44:54;51781.75;;;-145.37;29.18
13486;BME280;6815;59.336;17.998;2023-06-14T09:47:20;51809.72;;;-145.37;28.96
13486;BME280;6815;59.336;17.998;2023-06-14T09:49:47;51765.78;;;-145.37;28.85
13486;BME280;6815;59.336;17.998;2023-06-14T09:52:17;51805.72;;;-145.37;28.80
13486;BME280;6815;59.336;17.998;2023-06-14T09:54:44;51743.84;;;-145.37;29.06
13486;BME280;6815;59.336;17.998;2023-06-14T09:57:15;51805.72;;;-145.37;29.14
13486;BME280;6815;59.336;17.998;2023-06-14T09:59:45;51785.75;;;-145.37;29.03
13486;BME280;6815;59.336;17.998;2023-06-14T10:02:22;51761.81;;;-145.37;28.75
13486;BME280;6815;59.336;17.998;2023-06-14T10:04:58;51811.69;;;-145.37;28.96
13486;BME280;6815;59.336;17.998;2023-06-14T10:07:32;51763.78;;;-145.37;29.01
13486;BME280;6815;59.336;17.998;2023-06-14T10:10:00;51773.78;;;-145.37;28.88
13486;BME280;6815;59.336;17.998;2023-06-14T10:12:26;51825.66;;;-145.37;28.83
13486;BME280;6815;59.336;17.998;2023-06-14T10:14:53;52069.19;;;-145.37;28.82
13486;BME280;6815;59.336;17.998;2023-06-14T10:17:27;51815.69;;;-145.37;28.83
13486;BME280;6815;59.336;17.998;2023-06-14T10:20:04;51801.72;;;-145.37;28.83
13486;BME280;6815;59.336;17.998;2023-06-14T10:22:42;51799.72;;;-145.37;28.85
13486;BME280;6815;59.336;17.998;2023-06-14T10:25:12;51913.50;;;-145.37;28.80
13486;BME280;6815;59.336;17.998;2023-06-14T10:27:41;51801.72;;;-145.37;28.74
13486;BME280;6815;59.336;17.998;2023-06-14T10:30:14;51799.72;;;-145.37;29.02
13486;BME280;6815;59.336;17.998;2023-06-14T10:33:03;51827.66;;;-145.37;29.06
13486;BME280;6815;59.336;17.998;2023-06-14T10:35:28;51827.66;;;-145.37;29.03
13486;BME280;6815;59.336;17.998;2023-06-14T10:37:54;51825.66;;;-145.37;28.89
13486;BME280;6815;59.336;17.998;2023-06-14T10:40:33;51819.69;;;-145.37;28.88
13486;BME280;6815;59.336;17.998;2023-06-14T10:42:59;51811.69;;;-145.37;28.93
13486;BME280;6815;59.336;17.998;2023-06-14T10:45:24;51787.75;;;-145.37;28.98
13486;BME280;6815;59.336;17.998;2023-06-14T10:47:50;51773.78;;;-145.37;28.89
13486;BME280;6815;59.336;17.998;2023-06-14T10:50:27;51789.75;;;-145.37;28.66
13486;BME280;6815;59.336;17.998;2023-06-14T10:52:53;51831.66;;;-145.37;28.59
13486;BME280;6815;59.336;17.998;2023-06-14T10:55:18;51785.75;;;-145.37;28.54
13486;BME280;6815;59.336;17.998;2023-06-14T10:57:48;51795.72;;;-145.37;28.54
13486;BME280;6815;59.336;17.998;2023-06-14T11:00:19;51813.69;;;-145.37;28.40
13486;BME280;6815;59.336;17.998;2023-06-14T11:03:16;51815.69;;;-145.37;28.55
13486;BME280;6815;59.336;17.998;2023-06-14T11:08:34;51817.69;;;-145.37;28.48
13486;BME280;6815;59.336;17.998;2023-06-14T11:11:06;51791.75;;;-145.37;28.38
13486;BME280;6815;59.336;17.998;2023-06-14T11:13:32;51765.78;;;-145.37;28.09
13486;BME280;6815;59.336;17.998;2023-06-14T11:15:59;51791.75;;;-145.37;28.03
13486;BME280;6815;59.336;17.998;2023-06-14T11:18:25;51793.75;;;-145.37;28.04
13486;BME280;6815;59.336;17.998;2023-06-14T11:20:52;51759.81;;;-145.37;28.04
13486;BME280;6815;59.336;17.998;2023-06-14T11:23:18;51831.66;;;-145.37;28.02
13486;BME280;6815;59.336;17.998;2023-06-14T11:25:43;51807.72;;;-145.37;28.17
13486;BME280;6815;59.336;17.998;2023-06-14T11:28:09;51833.66;;;-145.37;28.20
13486;BME280;6815;59.336;17.998;2023-06-14T11:30:34;51743.84;;;-145.37;28.20
13486;BME280;6815;59.336;17.998;2023-06-14T11:33:00;51829.66;;;-145.37;28.14
13486;BME280;6815;59.336;17.998;2023-06-14T11:35:26;51813.69;;;-145.37;28.02
13486;BME280;6815;59.336;17.998;2023-06-14T11:37:55;51813.69;;;-145.37;28.10
13486;BME280;6815;59.336;17.998;2023-06-14T11:40:26;51737.84;;;-145.37;28.20
13486;BME280;6815;59.336;17.998;2023-06-14T11:42:59;51753.81;;;-145.37;28.44
13486;BME280;6815;59.336;17.998;2023-06-14T11:45:26;51883.56;;;-145.37;28.48
13486;BME280;6815;59.336;17.998;2023-06-14T11:47:51;51763.78;;;-145.37;28.44
13486;BME280;6815;59.336;17.998;2023-06-14T11:50:19;51797.72;;;-145.37;28.56
13486;BME280;6815;59.336;17.998;2023-06-14T11:52:44;51815.69;;;-145.37;28.66
13486;BME280;6815;59.336;17.998;2023-06-14T11:55:17;51785.75;;;-145.37;28.51
13486;BME280;6815;59.336;17.998;2023-06-14T11:57:42;51765.78;;;-145.37;28.67
13486;BME280;6815;59.336;17.998;2023-06-14T12:00:08;51973.38;;;-145.37;28.62
13486;BME280;6815;59.336;17.998;2023-06-14T12:02:37;51777.78;;;-145.37;28.55
13486;BME280;6815;59.336;17.998;2023-06-14T12:05:06;51795.72;;;-145.37;28.57
13486;BME280;6815;59.336;17.998;2023-06-14T12:07:38;51793.75;;;-145.37;28.43
13486;BME280;6815;59.336;17.998;2023-06-14T12:10:08;51751.81;;;-145.37;28.51
13486;BME280;6815;59.336;17.998;2023-06-14T12:12:38;51791.75;;;-145.37;28.49
13486;BME280;6815;59.336;17.998;2023-06-14T12:15:05;51827.66;;;-145.37;28.34
13486;BME280;6815;59.336;17.998;2023-06-14T12:17:33;51739.84;;;-145.37;28.60
13486;BME280;6815;59.336;17.998;2023-06-14T12:20:05;51793.75;;;-145.37;28.61
13486;BME280;6815;59.336;17.998;2023-06-14T12:22:33;51795.72;;;-145.37;28.38
13486;BME280;6815;59.336;17.998;2023-06-14T12:24:59;51821.69;;;-145.37;28.38
13486;BME280;6815;59.336;17.998;2023-06-14T12:27:25;51801.72;;;-145.37;28.35
13486;BME280;6815;59.336;17.998;2023-06-14T12:30:03;51717.88;;;-145.37;28.20
13486;BME280;6815;59.336;17.998;2023-06-14T12:32:30;51801.72;;;-145.37;28.30
13486;BME280;6815;59.336;17.998;2023-06-14T12:34:55;51809.72;;;-145.37;28.31
13486;BME280;6815;59.336;17.998;2023-06-14T12:37:21;51789.75;;;-145.37;28.40
13486;BME280;6815;59.336;17.998;2023-06-14T12:39:46;51829.66;;;-145.37;28.29
13486;BME280;6815;59.336;17.998;2023-06-14T12:42:12;51821.69;;;-145.37;28.26
13486;BME280;6815;59.336;17.998;2023-06-14T12:44:39;51819.69;;;-145.37;28.25